Marlboro, NY (12542)

3:50 AM EST on February 07, 2016 (GMT -0500)
MYC | | Change Station
CLOSE
Current Station
Personal Weather Station
Location: Marlboro, NY
Elevation: 194 ft
Nearby Weather Stations

Elev 194 ft 41.61 °N, 73.97 °W | Updated 7 minutes ago

Clear
Clear
24.8 °F
Feels Like 25 °F
N
0.0
Wind Variable Wind from NNW

Today
High -- | Low -- °F
--% Chance of Precip.
Yesterday
High -- | Low -- °F
Precip. -- in
Pressure 30.20 in
Visibility 10.0 miles
Clouds Clear
Windchill 25 °F
Dew Point 24 °F
Humidity 98%
Rainfall 0.00 in
Snow Depth Not available.
7:01 AM 5:18 PM
Waning Crescent, 2% visible
METAR KPOU 070753Z AUTO 12003KT 10SM CLR M04/M08 A3020 RMK AO2 SLP226 T10441078
Pressure 30.20 in
Visibility 10.0 miles
Clouds Clear
Windchill 25 °F
Dew Point 24 °F
Humidity 98%
Rainfall 0.00 in
Snow Depth Not available.
7:01 AM 5:18 PM
Waning Crescent, 2% visible
METAR KPOU 070753Z AUTO 12003KT 10SM CLR M04/M08 A3020 RMK AO2 SLP226 T10441078

10-Day Weather Forecast

Almanac

Astronomy

Feb. 07, 2016 Rise Set
Actual Time
Civil Twilight
Nautical Twilight
Astronomical Twilight
Moon
Length of Visible Light
Length of Day
Tomorrow will be .
, % of the Moon is Illuminated

Today's Extremes

State Highs State Lows

Community

WunderPhotos

Upload Photos

1,891,171 photos uploaded!

WunderBlog® & News

Nearby

Air Quality

  Air Quality AQ Index Pollutant
Not available.

Snow Depth

Station Depth Elevation

Earthquake Activity

City Distance Mag. Time & Date
Minimum magnitude displayed is 2.5.

Coastal Water Temperatures

Place Temperature

Stations

Nearby Weather Stations

Station Location Temp. Windchill Dew Point Humidity Wind Precip. Elev Updated Type
                   

Watches & Warnings

There are currently no watches in effect.